Nimbus Weather Services

Informe meteorológico para Carrasco, Uruguay. El informe se hizo hace 35 minutos, a las 06:00 UTC. El viento soplaba a una velocidad de 2.6 m/s (5.8 millas por hora) del este (090°). La temperatura era 10 °C (50 °F), con un punto de rocío de 8 °C (46 °F). La presión atmosférica era 1021 hPa (30.15 inHg). Había una humedad relativa del 87.4%. Cielo: sin nubes por debajo de 1500 metros (5000 pies) y sin presencia de cumulusnimbos. En aquel momento la visibilidad global era mayor de 10 kilómetros (6.2 millas).

La clave METAR es: SUMU 230600Z 09005KT CAVOK 10/08 Q1021 NOSIG

Consulta realizada el Miércoles 23 de Junio de 2021 3:35. Tiempo usado para generar esta pagina:17,553 ms.